sensor_id;sensor_type;location;lat;lon;timestamp;pressure;altitude;pressure_sealevel;temperature;humidity
69911;BME280;63555;49.920;17.868;2023-03-26T00:04:23;97734.44;;;7.31;65.71
69911;BME280;63555;49.920;17.868;2023-03-26T00:09:24;97743.97;;;7.32;65.62
69911;BME280;63555;49.920;17.868;2023-03-26T00:14:24;97751.47;;;7.26;65.44
69911;BME280;63555;49.920;17.868;2023-03-26T00:19:25;97753.50;;;7.11;65.84
69911;BME280;63555;49.920;17.868;2023-03-26T00:24:27;97743.59;;;6.92;65.87
69911;BME280;63555;49.920;17.868;2023-03-26T00:29:28;97728.56;;;6.83;65.56
69911;BME280;63555;49.920;17.868;2023-03-26T00:34:32;97718.94;;;6.84;65.77
69911;BME280;63555;49.920;17.868;2023-03-26T00:39:33;97717.38;;;6.81;65.77
69911;BME280;63555;49.920;17.868;2023-03-26T00:44:38;97711.41;;;6.68;65.95
69911;BME280;63555;49.920;17.868;2023-03-26T00:49:38;97705.81;;;6.61;66.57
69911;BME280;63555;49.920;17.868;2023-03-26T00:54:39;97697.00;;;6.62;66.32
69911;BME280;63555;49.920;17.868;2023-03-26T00:59:40;97697.47;;;6.56;66.92
69911;BME280;63555;49.920;17.868;2023-03-26T01:04:47;97707.94;;;6.56;66.60
69911;BME280;63555;49.920;17.868;2023-03-26T01:09:50;97707.59;;;6.61;66.75
69911;BME280;63555;49.920;17.868;2023-03-26T01:14:52;97712.38;;;6.67;66.96
69911;BME280;63555;49.920;17.868;2023-03-26T01:20:01;97710.59;;;6.67;66.98
69911;BME280;63555;49.920;17.868;2023-03-26T01:25:12;97722.63;;;6.70;66.33
69911;BME280;63555;49.920;17.868;2023-03-26T01:35:45;97726.06;;;6.82;66.45
69911;BME280;63555;49.920;17.868;2023-03-26T01:46:07;97720.28;;;7.00;66.01
69911;BME280;63555;49.920;17.868;2023-03-26T01:51:09;97729.69;;;7.03;65.92
69911;BME280;63555;49.920;17.868;2023-03-26T02:07:28;97711.66;;;6.76;66.58
69911;BME280;63555;49.920;17.868;2023-03-26T02:12:34;97703.78;;;6.65;66.40
69911;BME280;63555;49.920;17.868;2023-03-26T02:17:34;97698.19;;;6.47;66.95
69911;BME280;63555;49.920;17.868;2023-03-26T02:22:36;97714.31;;;6.30;67.37
69911;BME280;63555;49.920;17.868;2023-03-26T02:27:40;97719.53;;;6.19;67.52
69911;BME280;63555;49.920;17.868;2023-03-26T02:32:41;97704.28;;;6.13;67.62
69911;BME280;63555;49.920;17.868;2023-03-26T02:37:42;97707.63;;;6.15;67.77
69911;BME280;63555;49.920;17.868;2023-03-26T02:42:46;97717.16;;;6.16;68.29
69911;BME280;63555;49.920;17.868;2023-03-26T02:47:46;97694.53;;;6.15;67.81
69911;BME280;63555;49.920;17.868;2023-03-26T02:52:46;97701.78;;;6.11;68.20
69911;BME280;63555;49.920;17.868;2023-03-26T02:57:48;97694.31;;;6.18;68.05
69911;BME280;63555;49.920;17.868;2023-03-26T03:02:49;97702.41;;;6.26;68.42
69911;BME280;63555;49.920;17.868;2023-03-26T03:07:51;97679.34;;;6.31;67.42
69911;BME280;63555;49.920;17.868;2023-03-26T03:12:58;97677.06;;;6.26;67.90
69911;BME280;63555;49.920;17.868;2023-03-26T03:17:58;97682.78;;;6.20;67.66
69911;BME280;63555;49.920;17.868;2023-03-26T03:22:58;97684.56;;;6.20;68.17
69911;BME280;63555;49.920;17.868;2023-03-26T03:27:59;97694.19;;;6.19;67.91
69911;BME280;63555;49.920;17.868;2023-03-26T03:33:00;97697.72;;;6.07;68.13
69911;BME280;63555;49.920;17.868;2023-03-26T03:38:01;97698.72;;;5.93;67.96
69911;BME280;63555;49.920;17.868;2023-03-26T03:43:01;97703.00;;;5.94;68.48
69911;BME280;63555;49.920;17.868;2023-03-26T03:48:02;97684.63;;;6.07;68.49
69911;BME280;63555;49.920;17.868;2023-03-26T03:53:03;97687.78;;;6.23;68.45
69911;BME280;63555;49.920;17.868;2023-03-26T03:58:04;97687.09;;;6.32;67.99
69911;BME280;63555;49.920;17.868;2023-03-26T04:03:05;97691.03;;;6.38;67.62
69911;BME280;63555;49.920;17.868;2023-03-26T04:08:05;97692.22;;;6.45;67.71
69911;BME280;63555;49.920;17.868;2023-03-26T04:13:06;97701.50;;;6.49;67.56
69911;BME280;63555;49.920;17.868;2023-03-26T04:18:07;97693.66;;;6.49;67.12
69911;BME280;63555;49.920;17.868;2023-03-26T04:23:09;97690.69;;;6.54;67.45
69911;BME280;63555;49.920;17.868;2023-03-26T04:28:27;97696.53;;;6.57;67.41
69911;BME280;63555;49.920;17.868;2023-03-26T04:33:32;97688.19;;;6.63;67.38
69911;BME280;63555;49.920;17.868;2023-03-26T04:38:40;97694.03;;;6.67;66.73
69911;BME280;63555;49.920;17.868;2023-03-26T04:43:41;97690.69;;;6.65;66.68
69911;BME280;63555;49.920;17.868;2023-03-26T04:48:50;97702.25;;;6.62;67.09
69911;BME280;63555;49.920;17.868;2023-03-26T04:53:53;97683.19;;;6.60;66.88
69911;BME280;63555;49.920;17.868;2023-03-26T04:58:58;97677.22;;;6.47;67.31
69911;BME280;63555;49.920;17.868;2023-03-26T05:03:59;97663.03;;;6.27;67.87
69911;BME280;63555;49.920;17.868;2023-03-26T05:09:00;97688.09;;;6.07;67.60
69911;BME280;63555;49.920;17.868;2023-03-26T05:14:01;97703.72;;;5.96;67.80
69911;BME280;63555;49.920;17.868;2023-03-26T05:19:02;97704.56;;;5.97;68.00
69911;BME280;63555;49.920;17.868;2023-03-26T05:24:02;97702.31;;;6.03;67.90
69911;BME280;63555;49.920;17.868;2023-03-26T05:29:04;97704.06;;;6.16;68.29
69911;BME280;63555;49.920;17.868;2023-03-26T05:34:05;97695.09;;;6.07;68.05
69911;BME280;63555;49.920;17.868;2023-03-26T05:39:05;97693.59;;;5.92;68.04
69911;BME280;63555;49.920;17.868;2023-03-26T05:44:06;97688.41;;;5.79;68.60
69911;BME280;63555;49.920;17.868;2023-03-26T05:49:06;97700.75;;;5.77;68.63
69911;BME280;63555;49.920;17.868;2023-03-26T05:54:07;97689.72;;;5.85;68.38
69911;BME280;63555;49.920;17.868;2023-03-26T05:59:07;97700.81;;;6.58;69.64
69911;BME280;63555;49.920;17.868;2023-03-26T06:04:08;97688.84;;;8.19;66.08
69911;BME280;63555;49.920;17.868;2023-03-26T06:09:10;97682.09;;;9.19;63.61
69911;BME280;63555;49.920;17.868;2023-03-26T06:14:12;97680.44;;;9.97;62.28
69911;BME280;63555;49.920;17.868;2023-03-26T06:19:12;97692.66;;;10.27;60.66
69911;BME280;63555;49.920;17.868;2023-03-26T06:24:13;97696.53;;;10.42;61.39
69911;BME280;63555;49.920;17.868;2023-03-26T06:29:15;97702.69;;;10.89;59.00
69911;BME280;63555;49.920;17.868;2023-03-26T06:34:15;97701.41;;;10.46;59.84
69911;BME280;63555;49.920;17.868;2023-03-26T06:39:16;97684.28;;;11.07;58.99
69911;BME280;63555;49.920;17.868;2023-03-26T06:44:16;97689.34;;;12.18;55.58
69911;BME280;63555;49.920;17.868;2023-03-26T06:49:16;97679.28;;;12.65;55.03
69911;BME280;63555;49.920;17.868;2023-03-26T06:54:17;97672.03;;;13.19;54.27
69911;BME280;63555;49.920;17.868;2023-03-26T06:59:17;97686.81;;;13.88;52.66
69911;BME280;63555;49.920;17.868;2023-03-26T07:04:18;97693.50;;;14.33;51.02
69911;BME280;63555;49.920;17.868;2023-03-26T07:09:18;97699.81;;;12.71;52.76
69911;BME280;63555;49.920;17.868;2023-03-26T07:14:18;97701.34;;;12.30;54.13
69911;BME280;63555;49.920;17.868;2023-03-26T07:19:19;97713.63;;;12.83;52.67
69911;BME280;63555;49.920;17.868;2023-03-26T07:24:20;97697.53;;;13.79;51.18
69911;BME280;63555;49.920;17.868;2023-03-26T07:39:56;97685.38;;;17.07;45.26
69911;BME280;63555;49.920;17.868;2023-03-26T07:45:29;97681.34;;;17.91;43.81
69911;BME280;63555;49.920;17.868;2023-03-26T07:50:33;97673.94;;;18.72;41.64
69911;BME280;63555;49.920;17.868;2023-03-26T07:55:39;97677.94;;;19.11;40.89
69911;BME280;63555;49.920;17.868;2023-03-26T08:01:01;97667.91;;;19.19;39.36
69911;BME280;63555;49.920;17.868;2023-03-26T08:06:12;97673.19;;;19.47;39.79
69911;BME280;63555;49.920;17.868;2023-03-26T08:21:54;97669.97;;;19.58;38.76
69911;BME280;63555;49.920;17.868;2023-03-26T08:27:10;97663.66;;;21.64;35.66
69911;BME280;63555;49.920;17.868;2023-03-26T08:32:17;97664.66;;;20.52;35.89
69911;BME280;63555;49.920;17.868;2023-03-26T08:37:17;97672.72;;;18.10;39.22
69911;BME280;63555;49.920;17.868;2023-03-26T09:09:38;97684.03;;;13.14;46.78
69911;BME280;63555;49.920;17.868;2023-03-26T09:25:16;97674.25;;;12.54;48.01
69911;BME280;63555;49.920;17.868;2023-03-26T09:30:26;97679.66;;;12.27;48.86
69911;BME280;63555;49.920;17.868;2023-03-26T09:35:51;97670.84;;;12.18;49.02
69911;BME280;63555;49.920;17.868;2023-03-26T09:40:59;97670.16;;;12.16;49.16
69911;BME280;63555;49.920;17.868;2023-03-26T10:02:35;97629.38;;;16.63;41.82
69911;BME280;63555;49.920;17.868;2023-03-26T10:12:42;97620.19;;;14.64;43.71
69911;BME280;63555;49.920;17.868;2023-03-26T10:38:51;97593.06;;;12.81;46.86
69911;BME280;63555;49.920;17.868;2023-03-26T10:49:37;97579.81;;;13.06;46.77
69911;BME280;63555;49.920;17.868;2023-03-26T10:55:06;97587.03;;;13.47;46.10
69911;BME280;63555;49.920;17.868;2023-03-26T11:00:18;97579.59;;;13.42;46.06
69911;BME280;63555;49.920;17.868;2023-03-26T11:05:40;97582.41;;;13.41;45.94
69911;BME280;63555;49.920;17.868;2023-03-26T11:15:46;97564.91;;;13.88;45.29
69911;BME280;63555;49.920;17.868;2023-03-26T11:31:15;97544.94;;;14.57;44.30
69911;BME280;63555;49.920;17.868;2023-03-26T11:36:22;97536.50;;;14.54;44.71
69911;BME280;63555;49.920;17.868;2023-03-26T11:41:26;97517.38;;;14.75;44.39
69911;BME280;63555;49.920;17.868;2023-03-26T11:46:27;97510.09;;;15.53;43.50
69911;BME280;63555;49.920;17.868;2023-03-26T11:51:32;97491.84;;;15.96;42.47
69911;BME280;63555;49.920;17.868;2023-03-26T11:56:51;97494.28;;;16.50;41.24
69911;BME280;63555;49.920;17.868;2023-03-26T12:01:57;97475.03;;;17.77;39.99
69911;BME280;63555;49.920;17.868;2023-03-26T12:07:14;97467.94;;;19.56;37.88
69911;BME280;63555;49.920;17.868;2023-03-26T12:12:16;97468.13;;;20.33;36.12
69911;BME280;63555;49.920;17.868;2023-03-26T12:22:37;97447.94;;;19.32;35.38
69911;BME280;63555;49.920;17.868;2023-03-26T12:27:42;97448.56;;;17.76;37.84
69911;BME280;63555;49.920;17.868;2023-03-26T12:32:42;97422.72;;;17.12;38.57
69911;BME280;63555;49.920;17.868;2023-03-26T12:37:45;97409.34;;;17.70;38.35
69911;BME280;63555;49.920;17.868;2023-03-26T12:43:19;97400.41;;;19.21;35.60
69911;BME280;63555;49.920;17.868;2023-03-26T12:48:20;97395.28;;;19.26;35.72
69911;BME280;63555;49.920;17.868;2023-03-26T12:53:35;97384.22;;;19.55;33.90
69911;BME280;63555;49.920;17.868;2023-03-26T13:04:18;97371.84;;;19.87;33.56
69911;BME280;63555;49.920;17.868;2023-03-26T13:15:22;97360.13;;;19.49;33.43
69911;BME280;63555;49.920;17.868;2023-03-26T13:20:51;97360.06;;;20.15;31.57
69911;BME280;63555;49.920;17.868;2023-03-26T13:26:11;97382.13;;;19.90;31.14
69911;BME280;63555;49.920;17.868;2023-03-26T13:31:53;97361.50;;;18.92;31.75
69911;BME280;63555;49.920;17.868;2023-03-26T13:47:26;97367.69;;;16.77;33.96
69911;BME280;63555;49.920;17.868;2023-03-26T13:52:34;97372.88;;;16.85;33.78
69911;BME280;63555;49.920;17.868;2023-03-26T13:57:40;97370.19;;;16.64;34.17
69911;BME280;63555;49.920;17.868;2023-03-26T14:02:44;97352.63;;;16.18;34.92
69911;BME280;63555;49.920;17.868;2023-03-26T14:07:50;97349.13;;;16.33;35.61
69911;BME280;63555;49.920;17.868;2023-03-26T14:13:05;97333.88;;;18.10;33.79
69911;BME280;63555;49.920;17.868;2023-03-26T14:24:01;97334.31;;;17.73;34.12
69911;BME280;63555;49.920;17.868;2023-03-26T14:29:29;97331.75;;;16.51;35.71
69911;BME280;63555;49.920;17.868;2023-03-26T14:34:38;97336.34;;;15.77;37.22
69911;BME280;63555;49.920;17.868;2023-03-26T15:11:45;97302.59;;;13.72;40.44
69911;BME280;63555;49.920;17.868;2023-03-26T15:44:59;97327.59;;;12.15;44.52
69911;BME280;63555;49.920;17.868;2023-03-26T15:50:34;97327.44;;;11.83;45.37
69911;BME280;63555;49.920;17.868;2023-03-26T16:11:52;97315.81;;;11.33;47.31
69911;BME280;63555;49.920;17.868;2023-03-26T16:16:59;97311.06;;;11.19;48.07
69911;BME280;63555;49.920;17.868;2023-03-26T16:22:02;97318.56;;;11.06;47.95
69911;BME280;63555;49.920;17.868;2023-03-26T16:32:22;97326.59;;;10.78;49.32
69911;BME280;63555;49.920;17.868;2023-03-26T16:42:44;97320.91;;;10.47;50.21
69911;BME280;63555;49.920;17.868;2023-03-26T16:53:22;97322.16;;;10.16;51.14
69911;BME280;63555;49.920;17.868;2023-03-26T16:58:55;97322.38;;;10.05;52.35
69911;BME280;63555;49.920;17.868;2023-03-26T17:04:03;97309.56;;;9.92;52.14
69911;BME280;63555;49.920;17.868;2023-03-26T17:09:36;97311.28;;;9.83;52.90
69911;BME280;63555;49.920;17.868;2023-03-26T17:41:52;97303.88;;;9.32;55.17
69911;BME280;63555;49.920;17.868;2023-03-26T17:46:55;97309.00;;;9.24;55.21
69911;BME280;63555;49.920;17.868;2023-03-26T17:57:51;97313.06;;;9.09;55.96
69911;BME280;63555;49.920;17.868;2023-03-26T18:03:19;97311.16;;;9.01;56.57
69911;BME280;63555;49.920;17.868;2023-03-26T18:19:03;97301.06;;;8.87;56.66
69911;BME280;63555;49.920;17.868;2023-03-26T18:29:31;97290.44;;;8.79;57.53
69911;BME280;63555;49.920;17.868;2023-03-26T18:34:33;97288.50;;;8.71;57.80
69911;BME280;63555;49.920;17.868;2023-03-26T18:39:36;97280.63;;;8.61;58.98
69911;BME280;63555;49.920;17.868;2023-03-26T18:44:37;97302.75;;;8.49;59.64
69911;BME280;63555;49.920;17.868;2023-03-26T18:49:37;97296.25;;;8.34;60.41
69911;BME280;63555;49.920;17.868;2023-03-26T18:54:41;97287.66;;;8.22;60.83
69911;BME280;63555;49.920;17.868;2023-03-26T18:59:43;97275.63;;;8.10;61.18
69911;BME280;63555;49.920;17.868;2023-03-26T19:04:45;97266.63;;;8.03;62.23
69911;BME280;63555;49.920;17.868;2023-03-26T19:09:49;97262.50;;;8.01;62.27
69911;BME280;63555;49.920;17.868;2023-03-26T19:15:02;97253.66;;;8.02;62.25
69911;BME280;63555;49.920;17.868;2023-03-26T19:20:03;97238.59;;;8.04;62.85
69911;BME280;63555;49.920;17.868;2023-03-26T19:25:18;97237.47;;;8.06;62.71
69911;BME280;63555;49.920;17.868;2023-03-26T19:30:34;97219.09;;;8.06;63.09
69911;BME280;63555;49.920;17.868;2023-03-26T19:35:40;97217.59;;;8.04;62.65
69911;BME280;63555;49.920;17.868;2023-03-26T19:40:41;97200.31;;;8.01;63.25
69911;BME280;63555;49.920;17.868;2023-03-26T19:45:42;97197.56;;;8.03;63.39
69911;BME280;63555;49.920;17.868;2023-03-26T19:51:13;97198.25;;;8.05;63.82
69911;BME280;63555;49.920;17.868;2023-03-26T19:56:17;97201.41;;;8.08;63.33
69911;BME280;63555;49.920;17.868;2023-03-26T20:01:21;97193.41;;;8.10;63.05
69911;BME280;63555;49.920;17.868;2023-03-26T20:06:22;97181.78;;;8.12;63.24
69911;BME280;63555;49.920;17.868;2023-03-26T20:11:31;97164.25;;;8.13;64.14
69911;BME280;63555;49.920;17.868;2023-03-26T20:16:33;97164.81;;;8.07;63.29
69911;BME280;63555;49.920;17.868;2023-03-26T20:21:34;97161.63;;;7.93;64.08
69911;BME280;63555;49.920;17.868;2023-03-26T20:26:34;97143.09;;;7.76;64.34
69911;BME280;63555;49.920;17.868;2023-03-26T20:31:34;97147.66;;;7.54;64.47
69911;BME280;63555;49.920;17.868;2023-03-26T20:36:35;97137.69;;;7.39;64.69
69911;BME280;63555;49.920;17.868;2023-03-26T20:41:44;97137.69;;;7.29;65.04
69911;BME280;63555;49.920;17.868;2023-03-26T20:46:46;97130.91;;;7.17;65.72
69911;BME280;63555;49.920;17.868;2023-03-26T20:51:47;97130.34;;;7.13;65.97
69911;BME280;63555;49.920;17.868;2023-03-26T20:56:48;97139.31;;;7.20;66.50
69911;BME280;63555;49.920;17.868;2023-03-26T21:01:49;97142.66;;;7.32;66.10
69911;BME280;63555;49.920;17.868;2023-03-26T21:06:50;97150.81;;;7.39;65.73
69911;BME280;63555;49.920;17.868;2023-03-26T21:12:31;97147.09;;;7.41;65.90
69911;BME280;63555;49.920;17.868;2023-03-26T21:17:30;97146.94;;;7.43;66.03
69911;BME280;63555;49.920;17.868;2023-03-26T21:28:31;97129.69;;;7.50;66.86
69911;BME280;63555;49.920;17.868;2023-03-26T21:33:33;97113.69;;;7.53;66.10
69911;BME280;63555;49.920;17.868;2023-03-26T21:38:34;97112.59;;;7.55;66.51
69911;BME280;63555;49.920;17.868;2023-03-26T21:43:34;97114.25;;;7.56;66.39
69911;BME280;63555;49.920;17.868;2023-03-26T21:48:35;97118.81;;;7.54;66.72
69911;BME280;63555;49.920;17.868;2023-03-26T21:53:36;97131.09;;;7.54;66.88
69911;BME280;63555;49.920;17.868;2023-03-26T22:09:23;97107.06;;;7.58;67.12
69911;BME280;63555;49.920;17.868;2023-03-26T22:14:23;97109.41;;;7.61;66.89
69911;BME280;63555;49.920;17.868;2023-03-26T22:19:24;97111.63;;;7.66;67.49
69911;BME280;63555;49.920;17.868;2023-03-26T22:24:25;97109.00;;;7.66;67.50
69911;BME280;63555;49.920;17.868;2023-03-26T22:29:26;97102.66;;;7.68;67.63
69911;BME280;63555;49.920;17.868;2023-03-26T22:34:26;97108.03;;;7.67;67.73
69911;BME280;63555;49.920;17.868;2023-03-26T22:39:26;97109.81;;;7.66;67.47
69911;BME280;63555;49.920;17.868;2023-03-26T22:44:27;97103.75;;;7.66;68.26
69911;BME280;63555;49.920;17.868;2023-03-26T22:49:28;97089.25;;;7.62;68.39
69911;BME280;63555;49.920;17.868;2023-03-26T22:54:30;97089.13;;;7.63;68.30
69911;BME280;63555;49.920;17.868;2023-03-26T22:59:30;97085.53;;;7.64;67.79
69911;BME280;63555;49.920;17.868;2023-03-26T23:04:31;97085.53;;;7.64;68.02
69911;BME280;63555;49.920;17.868;2023-03-26T23:09:31;97085.53;;;7.64;67.73
69911;BME280;63555;49.920;17.868;2023-03-26T23:14:31;97075.31;;;7.61;68.31
69911;BME280;63555;49.920;17.868;2023-03-26T23:19:32;97078.91;;;7.60;68.45
69911;BME280;63555;49.920;17.868;2023-03-26T23:24:33;97086.09;;;7.58;69.01
69911;BME280;63555;49.920;17.868;2023-03-26T23:29:33;97077.53;;;7.56;68.67
69911;BME280;63555;49.920;17.868;2023-03-26T23:34:35;97083.03;;;7.53;68.38
69911;BME280;63555;49.920;17.868;2023-03-26T23:39:35;97077.94;;;7.52;68.45
69911;BME280;63555;49.920;17.868;2023-03-26T23:44:36;97078.06;;;7.50;68.89
69911;BME280;63555;49.920;17.868;2023-03-26T23:49:38;97073.94;;;7.48;69.55
69911;BME280;63555;49.920;17.868;2023-03-26T23:54:38;97082.91;;;7.45;68.68
69911;BME280;63555;49.920;17.868;2023-03-26T23:59:41;97084.56;;;7.46;69.25
